sensor_id;sensor_type;location;lat;lon;timestamp;temperature;humidity
13074;DHT22;6603;47.066;15.396;2022-08-19T00:00:25;17.90;99.90
13074;DHT22;6603;47.066;15.396;2022-08-19T00:02:51;17.80;99.90
13074;DHT22;6603;47.066;15.396;2022-08-19T00:05:17;17.90;99.90
13074;DHT22;6603;47.066;15.396;2022-08-19T00:07:44;17.70;99.90
13074;DHT22;6603;47.066;15.396;2022-08-19T00:10:13;17.70;99.90
13074;DHT22;6603;47.066;15.396;2022-08-19T00:12:40;17.70;99.90
13074;DHT22;6603;47.066;15.396;2022-08-19T00:15:09;17.70;99.90
13074;DHT22;6603;47.066;15.396;2022-08-19T00:17:39;17.80;99.90
13074;DHT22;6603;47.066;15.396;2022-08-19T00:20:06;17.80;99.90
13074;DHT22;6603;47.066;15.396;2022-08-19T00:22:32;17.80;99.90
13074;DHT22;6603;47.066;15.396;2022-08-19T00:24:58;17.80;99.90
13074;DHT22;6603;47.066;15.396;2022-08-19T00:27:24;17.80;99.90
13074;DHT22;6603;47.066;15.396;2022-08-19T00:29:50;17.90;99.90
13074;DHT22;6603;47.066;15.396;2022-08-19T00:32:16;17.70;99.90
13074;DHT22;6603;47.066;15.396;2022-08-19T00:34:42;17.50;99.90
13074;DHT22;6603;47.066;15.396;2022-08-19T00:37:09;17.50;99.90
13074;DHT22;6603;47.066;15.396;2022-08-19T00:39:35;17.40;99.90
13074;DHT22;6603;47.066;15.396;2022-08-19T00:42:01;17.30;99.90
13074;DHT22;6603;47.066;15.396;2022-08-19T00:44:28;17.30;99.90
13074;DHT22;6603;47.066;15.396;2022-08-19T00:46:58;17.50;99.90
13074;DHT22;6603;47.066;15.396;2022-08-19T00:49:34;17.60;99.90
13074;DHT22;6603;47.066;15.396;2022-08-19T00:52:14;17.70;99.90
13074;DHT22;6603;47.066;15.396;2022-08-19T00:54:42;17.80;99.90
13074;DHT22;6603;47.066;15.396;2022-08-19T00:57:12;17.80;99.90
13074;DHT22;6603;47.066;15.396;2022-08-19T00:59:40;17.90;99.90
13074;DHT22;6603;47.066;15.396;2022-08-19T01:02:07;17.80;99.90
13074;DHT22;6603;47.066;15.396;2022-08-19T01:04:33;17.90;99.90
13074;DHT22;6603;47.066;15.396;2022-08-19T01:06:59;17.80;99.90
13074;DHT22;6603;47.066;15.396;2022-08-19T01:09:27;17.80;99.90
13074;DHT22;6603;47.066;15.396;2022-08-19T01:11:53;17.80;99.90
13074;DHT22;6603;47.066;15.396;2022-08-19T01:14:20;17.70;99.90
13074;DHT22;6603;47.066;15.396;2022-08-19T01:16:46;17.80;99.90
13074;DHT22;6603;47.066;15.396;2022-08-19T01:19:29;17.90;99.90
13074;DHT22;6603;47.066;15.396;2022-08-19T01:24:26;17.70;99.90
13074;DHT22;6603;47.066;15.396;2022-08-19T01:26:52;17.80;99.90
13074;DHT22;6603;47.066;15.396;2022-08-19T01:29:18;17.80;99.90
13074;DHT22;6603;47.066;15.396;2022-08-19T01:31:44;17.90;99.90
13074;DHT22;6603;47.066;15.396;2022-08-19T01:34:10;17.90;99.90
13074;DHT22;6603;47.066;15.396;2022-08-19T01:36:41;17.90;99.90
13074;DHT22;6603;47.066;15.396;2022-08-19T01:39:11;17.80;99.90
13074;DHT22;6603;47.066;15.396;2022-08-19T01:41:38;17.50;99.90
13074;DHT22;6603;47.066;15.396;2022-08-19T01:44:05;17.50;99.90
13074;DHT22;6603;47.066;15.396;2022-08-19T01:46:31;17.40;99.90
13074;DHT22;6603;47.066;15.396;2022-08-19T01:48:58;17.40;99.90
13074;DHT22;6603;47.066;15.396;2022-08-19T01:51:24;17.50;99.90
13074;DHT22;6603;47.066;15.396;2022-08-19T01:53:50;17.50;99.90
13074;DHT22;6603;47.066;15.396;2022-08-19T01:56:18;17.50;99.90
13074;DHT22;6603;47.066;15.396;2022-08-19T01:58:51;17.50;99.90
13074;DHT22;6603;47.066;15.396;2022-08-19T02:01:19;17.50;99.90
13074;DHT22;6603;47.066;15.396;2022-08-19T02:03:45;17.40;99.90
13074;DHT22;6603;47.066;15.396;2022-08-19T02:06:12;17.50;99.90
13074;DHT22;6603;47.066;15.396;2022-08-19T02:08:39;17.50;99.90
13074;DHT22;6603;47.066;15.396;2022-08-19T02:11:06;17.20;99.90
13074;DHT22;6603;47.066;15.396;2022-08-19T02:13:32;17.30;99.90
13074;DHT22;6603;47.066;15.396;2022-08-19T02:15:59;17.30;99.90
13074;DHT22;6603;47.066;15.396;2022-08-19T02:18:25;17.30;99.90
13074;DHT22;6603;47.066;15.396;2022-08-19T02:20:52;17.50;99.90
13074;DHT22;6603;47.066;15.396;2022-08-19T02:23:18;17.50;99.90
13074;DHT22;6603;47.066;15.396;2022-08-19T02:25:46;17.50;99.90
13074;DHT22;6603;47.066;15.396;2022-08-19T02:28:12;17.60;99.90
13074;DHT22;6603;47.066;15.396;2022-08-19T02:30:40;17.70;99.90
13074;DHT22;6603;47.066;15.396;2022-08-19T02:33:06;17.70;99.90
13074;DHT22;6603;47.066;15.396;2022-08-19T02:35:32;17.60;99.90
13074;DHT22;6603;47.066;15.396;2022-08-19T02:37:57;17.60;99.90
13074;DHT22;6603;47.066;15.396;2022-08-19T02:40:51;17.80;99.90
13074;DHT22;6603;47.066;15.396;2022-08-19T02:43:18;17.60;99.90
13074;DHT22;6603;47.066;15.396;2022-08-19T02:45:46;17.70;99.90
13074;DHT22;6603;47.066;15.396;2022-08-19T02:48:18;18.00;99.90
13074;DHT22;6603;47.066;15.396;2022-08-19T02:50:45;18.00;99.90
13074;DHT22;6603;47.066;15.396;2022-08-19T02:53:12;18.00;99.90
13074;DHT22;6603;47.066;15.396;2022-08-19T02:55:46;18.10;99.90
13074;DHT22;6603;47.066;15.396;2022-08-19T02:58:13;17.90;99.90
13074;DHT22;6603;47.066;15.396;2022-08-19T03:00:48;17.90;99.90
13074;DHT22;6603;47.066;15.396;2022-08-19T03:03:15;17.90;99.90
13074;DHT22;6603;47.066;15.396;2022-08-19T03:05:42;17.90;99.90
13074;DHT22;6603;47.066;15.396;2022-08-19T03:08:09;17.90;99.90
13074;DHT22;6603;47.066;15.396;2022-08-19T03:10:43;17.90;99.90
13074;DHT22;6603;47.066;15.396;2022-08-19T03:13:11;17.90;99.90
13074;DHT22;6603;47.066;15.396;2022-08-19T03:15:46;17.80;99.90
13074;DHT22;6603;47.066;15.396;2022-08-19T03:18:14;18.00;99.90
13074;DHT22;6603;47.066;15.396;2022-08-19T03:20:46;17.90;99.90
13074;DHT22;6603;47.066;15.396;2022-08-19T03:23:12;17.90;99.90
13074;DHT22;6603;47.066;15.396;2022-08-19T03:25:46;17.90;99.90
13074;DHT22;6603;47.066;15.396;2022-08-19T03:28:13;18.00;99.90
13074;DHT22;6603;47.066;15.396;2022-08-19T03:30:41;17.90;99.90
13074;DHT22;6603;47.066;15.396;2022-08-19T03:33:08;17.90;99.90
13074;DHT22;6603;47.066;15.396;2022-08-19T03:35:34;17.90;99.90
13074;DHT22;6603;47.066;15.396;2022-08-19T03:38:03;17.90;99.90
13074;DHT22;6603;47.066;15.396;2022-08-19T03:40:29;17.80;99.90
13074;DHT22;6603;47.066;15.396;2022-08-19T03:42:56;18.00;99.90
13074;DHT22;6603;47.066;15.396;2022-08-19T03:45:23;18.10;99.90
13074;DHT22;6603;47.066;15.396;2022-08-19T03:47:49;18.10;99.90
13074;DHT22;6603;47.066;15.396;2022-08-19T03:50:15;18.30;99.90
13074;DHT22;6603;47.066;15.396;2022-08-19T03:52:41;18.20;99.90
13074;DHT22;6603;47.066;15.396;2022-08-19T03:55:08;18.30;99.90
13074;DHT22;6603;47.066;15.396;2022-08-19T03:57:34;18.30;99.90
13074;DHT22;6603;47.066;15.396;2022-08-19T04:00:00;18.50;99.90
13074;DHT22;6603;47.066;15.396;2022-08-19T04:02:26;18.70;2.70
13074;DHT22;6603;47.066;15.396;2022-08-19T04:04:53;19.00;1.00
13074;DHT22;6603;47.066;15.396;2022-08-19T04:07:22;19.70;1.00
13074;DHT22;6603;47.066;15.396;2022-08-19T04:09:49;20.20;1.00
13074;DHT22;6603;47.066;15.396;2022-08-19T04:12:15;20.60;99.90
13074;DHT22;6603;47.066;15.396;2022-08-19T04:14:41;20.80;1.00
13074;DHT22;6603;47.066;15.396;2022-08-19T04:17:07;20.70;99.90
13074;DHT22;6603;47.066;15.396;2022-08-19T04:19:35;20.70;1.00
13074;DHT22;6603;47.066;15.396;2022-08-19T04:22:02;20.80;1.00
13074;DHT22;6603;47.066;15.396;2022-08-19T04:24:28;20.80;1.00
13074;DHT22;6603;47.066;15.396;2022-08-19T04:26:54;20.80;1.00
13074;DHT22;6603;47.066;15.396;2022-08-19T04:29:23;20.90;1.00
13074;DHT22;6603;47.066;15.396;2022-08-19T04:31:51;21.00;1.00
13074;DHT22;6603;47.066;15.396;2022-08-19T04:34:21;21.10;1.00
13074;DHT22;6603;47.066;15.396;2022-08-19T04:36:48;21.10;1.00
13074;DHT22;6603;47.066;15.396;2022-08-19T04:39:19;21.20;1.00
13074;DHT22;6603;47.066;15.396;2022-08-19T04:41:45;21.20;1.00
13074;DHT22;6603;47.066;15.396;2022-08-19T04:44:32;21.20;1.00
13074;DHT22;6603;47.066;15.396;2022-08-19T04:46:59;21.20;99.90
13074;DHT22;6603;47.066;15.396;2022-08-19T04:49:25;21.20;1.00
13074;DHT22;6603;47.066;15.396;2022-08-19T04:51:53;21.40;99.90
13074;DHT22;6603;47.066;15.396;2022-08-19T04:54:25;21.50;1.00
13074;DHT22;6603;47.066;15.396;2022-08-19T04:56:54;21.40;1.00
13074;DHT22;6603;47.066;15.396;2022-08-19T04:59:20;21.20;99.90
13074;DHT22;6603;47.066;15.396;2022-08-19T05:01:47;20.90;1.00
13074;DHT22;6603;47.066;15.396;2022-08-19T05:04:19;20.80;99.90
13074;DHT22;6603;47.066;15.396;2022-08-19T05:06:49;20.70;1.00
13074;DHT22;6603;47.066;15.396;2022-08-19T05:09:16;20.60;99.90
13074;DHT22;6603;47.066;15.396;2022-08-19T05:11:43;20.50;1.00
13074;DHT22;6603;47.066;15.396;2022-08-19T05:14:10;20.50;53.80
13074;DHT22;6603;47.066;15.396;2022-08-19T05:16:39;20.60;99.90
13074;DHT22;6603;47.066;15.396;2022-08-19T05:19:05;20.70;1.00
13074;DHT22;6603;47.066;15.396;2022-08-19T05:21:49;20.70;99.90
13074;DHT22;6603;47.066;15.396;2022-08-19T05:24:34;20.70;1.00
13074;DHT22;6603;47.066;15.396;2022-08-19T05:27:00;20.80;99.90
13074;DHT22;6603;47.066;15.396;2022-08-19T05:29:29;20.90;99.90
13074;DHT22;6603;47.066;15.396;2022-08-19T05:31:57;21.00;1.00
13074;DHT22;6603;47.066;15.396;2022-08-19T05:37:02;21.10;99.90
13074;DHT22;6603;47.066;15.396;2022-08-19T05:39:30;21.30;1.00
13074;DHT22;6603;47.066;15.396;2022-08-19T05:42:00;21.40;1.00
13074;DHT22;6603;47.066;15.396;2022-08-19T05:44:28;21.50;99.90
13074;DHT22;6603;47.066;15.396;2022-08-19T05:47:01;21.60;99.90
13074;DHT22;6603;47.066;15.396;2022-08-19T05:49:28;21.80;1.00
13074;DHT22;6603;47.066;15.396;2022-08-19T05:51:55;21.90;30.20
13074;DHT22;6603;47.066;15.396;2022-08-19T05:54:23;22.10;99.90
13074;DHT22;6603;47.066;15.396;2022-08-19T05:56:50;22.20;1.00
13074;DHT22;6603;47.066;15.396;2022-08-19T05:59:17;22.10;1.00
13074;DHT22;6603;47.066;15.396;2022-08-19T06:01:46;22.20;1.00
13074;DHT22;6603;47.066;15.396;2022-08-19T06:04:16;22.20;1.00
13074;DHT22;6603;47.066;15.396;2022-08-19T06:06:45;22.20;99.90
13074;DHT22;6603;47.066;15.396;2022-08-19T06:09:12;22.20;1.00
13074;DHT22;6603;47.066;15.396;2022-08-19T06:11:41;22.20;1.00
13074;DHT22;6603;47.066;15.396;2022-08-19T06:14:12;22.30;1.00
13074;DHT22;6603;47.066;15.396;2022-08-19T06:16:40;22.50;1.00
13074;DHT22;6603;47.066;15.396;2022-08-19T06:19:11;22.60;1.00
13074;DHT22;6603;47.066;15.396;2022-08-19T06:21:39;22.70;9.40
13074;DHT22;6603;47.066;15.396;2022-08-19T06:24:07;22.90;1.00
13074;DHT22;6603;47.066;15.396;2022-08-19T06:26:36;23.00;1.00
13074;DHT22;6603;47.066;15.396;2022-08-19T06:29:04;23.10;99.90
13074;DHT22;6603;47.066;15.396;2022-08-19T06:31:33;23.20;1.00
13074;DHT22;6603;47.066;15.396;2022-08-19T06:34:00;23.30;99.90
13074;DHT22;6603;47.066;15.396;2022-08-19T06:36:38;23.30;99.90
13074;DHT22;6603;47.066;15.396;2022-08-19T06:39:09;23.30;99.90
13074;DHT22;6603;47.066;15.396;2022-08-19T06:41:47;23.40;1.00
13074;DHT22;6603;47.066;15.396;2022-08-19T06:44:16;23.50;1.00
13074;DHT22;6603;47.066;15.396;2022-08-19T06:46:43;23.50;1.00
13074;DHT22;6603;47.066;15.396;2022-08-19T06:49:09;23.50;1.00
13074;DHT22;6603;47.066;15.396;2022-08-19T06:51:40;23.50;1.00
13074;DHT22;6603;47.066;15.396;2022-08-19T06:54:07;23.50;1.00
13074;DHT22;6603;47.066;15.396;2022-08-19T06:56:33;23.50;49.50
13074;DHT22;6603;47.066;15.396;2022-08-19T06:59:06;23.50;99.90
13074;DHT22;6603;47.066;15.396;2022-08-19T07:01:44;23.50;1.00
13074;DHT22;6603;47.066;15.396;2022-08-19T07:04:17;23.30;1.00
13074;DHT22;6603;47.066;15.396;2022-08-19T07:06:44;23.20;1.00
13074;DHT22;6603;47.066;15.396;2022-08-19T07:09:13;23.20;1.00
13074;DHT22;6603;47.066;15.396;2022-08-19T07:11:46;23.00;99.90
13074;DHT22;6603;47.066;15.396;2022-08-19T07:14:13;22.90;1.00
13074;DHT22;6603;47.066;15.396;2022-08-19T07:16:41;22.80;99.90
13074;DHT22;6603;47.066;15.396;2022-08-19T07:19:06;22.70;99.90
13074;DHT22;6603;47.066;15.396;2022-08-19T07:21:33;22.70;99.90
13074;DHT22;6603;47.066;15.396;2022-08-19T07:24:00;22.70;99.90
13074;DHT22;6603;47.066;15.396;2022-08-19T07:26:29;22.50;99.90
13074;DHT22;6603;47.066;15.396;2022-08-19T07:28:56;22.50;99.90
13074;DHT22;6603;47.066;15.396;2022-08-19T07:31:24;22.60;1.00
13074;DHT22;6603;47.066;15.396;2022-08-19T07:33:52;22.60;1.00
13074;DHT22;6603;47.066;15.396;2022-08-19T07:36:25;22.60;1.00
13074;DHT22;6603;47.066;15.396;2022-08-19T07:38:56;22.50;1.00
13074;DHT22;6603;47.066;15.396;2022-08-19T07:41:25;22.40;99.90
13074;DHT22;6603;47.066;15.396;2022-08-19T07:43:53;22.40;99.90
13074;DHT22;6603;47.066;15.396;2022-08-19T07:46:19;22.30;99.90
13074;DHT22;6603;47.066;15.396;2022-08-19T07:48:47;22.10;1.00
13074;DHT22;6603;47.066;15.396;2022-08-19T07:51:19;22.10;1.00
13074;DHT22;6603;47.066;15.396;2022-08-19T07:53:47;22.00;1.00
13074;DHT22;6603;47.066;15.396;2022-08-19T07:56:18;21.90;1.00
13074;DHT22;6603;47.066;15.396;2022-08-19T07:58:47;21.80;54.80
13074;DHT22;6603;47.066;15.396;2022-08-19T08:01:24;21.80;99.90
13074;DHT22;6603;47.066;15.396;2022-08-19T08:03:52;21.70;1.00
13074;DHT22;6603;47.066;15.396;2022-08-19T08:06:36;21.80;1.00
13074;DHT22;6603;47.066;15.396;2022-08-19T08:09:34;21.70;1.00
13074;DHT22;6603;47.066;15.396;2022-08-19T08:12:02;21.50;15.10
13074;DHT22;6603;47.066;15.396;2022-08-19T08:14:47;21.50;1.00
13074;DHT22;6603;47.066;15.396;2022-08-19T08:17:15;21.30;99.90
13074;DHT22;6603;47.066;15.396;2022-08-19T08:19:42;21.40;1.00
13074;DHT22;6603;47.066;15.396;2022-08-19T08:22:09;21.30;1.00
13074;DHT22;6603;47.066;15.396;2022-08-19T08:24:55;21.10;1.00
13074;DHT22;6603;47.066;15.396;2022-08-19T08:27:24;20.90;55.90
13074;DHT22;6603;47.066;15.396;2022-08-19T08:29:51;20.80;59.30
13074;DHT22;6603;47.066;15.396;2022-08-19T08:32:17;20.80;99.90
13074;DHT22;6603;47.066;15.396;2022-08-19T08:34:42;20.80;99.90
13074;DHT22;6603;47.066;15.396;2022-08-19T08:37:08;20.70;99.90
13074;DHT22;6603;47.066;15.396;2022-08-19T08:39:34;20.80;99.90
13074;DHT22;6603;47.066;15.396;2022-08-19T08:42:25;20.80;99.90
13074;DHT22;6603;47.066;15.396;2022-08-19T08:45:13;21.00;99.90
13074;DHT22;6603;47.066;15.396;2022-08-19T08:47:44;21.20;99.90
13074;DHT22;6603;47.066;15.396;2022-08-19T08:50:34;21.40;99.90
13074;DHT22;6603;47.066;15.396;2022-08-19T08:53:04;21.50;99.90
13074;DHT22;6603;47.066;15.396;2022-08-19T08:55:31;21.80;1.00
13074;DHT22;6603;47.066;15.396;2022-08-19T08:58:01;22.00;1.00
13074;DHT22;6603;47.066;15.396;2022-08-19T09:00:41;22.30;1.00
13074;DHT22;6603;47.066;15.396;2022-08-19T09:03:18;22.40;1.00
13074;DHT22;6603;47.066;15.396;2022-08-19T09:06:03;22.40;1.00
13074;DHT22;6603;47.066;15.396;2022-08-19T09:09:03;22.40;67.90
13074;DHT22;6603;47.066;15.396;2022-08-19T09:14:33;22.30;99.90
13074;DHT22;6603;47.066;15.396;2022-08-19T09:16:59;22.30;1.00
13074;DHT22;6603;47.066;15.396;2022-08-19T09:19:29;21.90;99.90
13074;DHT22;6603;47.066;15.396;2022-08-19T09:21:56;21.90;99.10
13074;DHT22;6603;47.066;15.396;2022-08-19T09:24:21;22.00;99.90
13074;DHT22;6603;47.066;15.396;2022-08-19T09:26:47;21.90;52.10
13074;DHT22;6603;47.066;15.396;2022-08-19T09:29:13;22.20;99.90
13074;DHT22;6603;47.066;15.396;2022-08-19T09:31:39;22.60;3.30
13074;DHT22;6603;47.066;15.396;2022-08-19T09:34:05;22.70;1.00
13074;DHT22;6603;47.066;15.396;2022-08-19T09:36:33;22.80;1.00
13074;DHT22;6603;47.066;15.396;2022-08-19T09:39:05;22.80;1.00
13074;DHT22;6603;47.066;15.396;2022-08-19T09:41:31;23.00;1.00
13074;DHT22;6603;47.066;15.396;2022-08-19T09:43:58;23.50;1.00
13074;DHT22;6603;47.066;15.396;2022-08-19T09:46:28;23.70;1.00
13074;DHT22;6603;47.066;15.396;2022-08-19T09:48:59;23.80;1.00
13074;DHT22;6603;47.066;15.396;2022-08-19T09:51:26;23.70;99.90
13074;DHT22;6603;47.066;15.396;2022-08-19T09:53:54;23.70;99.90
13074;DHT22;6603;47.066;15.396;2022-08-19T09:56:23;23.60;99.90
13074;DHT22;6603;47.066;15.396;2022-08-19T09:58:50;23.60;1.00
13074;DHT22;6603;47.066;15.396;2022-08-19T10:01:23;23.60;1.00
13074;DHT22;6603;47.066;15.396;2022-08-19T10:03:53;23.50;1.00
13074;DHT22;6603;47.066;15.396;2022-08-19T10:06:24;23.30;1.00
13074;DHT22;6603;47.066;15.396;2022-08-19T10:08:51;23.40;99.90
13074;DHT22;6603;47.066;15.396;2022-08-19T10:11:19;23.50;1.00
13074;DHT22;6603;47.066;15.396;2022-08-19T10:13:46;23.30;1.00
13074;DHT22;6603;47.066;15.396;2022-08-19T10:16:15;23.30;1.00
13074;DHT22;6603;47.066;15.396;2022-08-19T10:18:43;23.20;99.90
13074;DHT22;6603;47.066;15.396;2022-08-19T10:21:26;23.30;1.00
13074;DHT22;6603;47.066;15.396;2022-08-19T10:23:55;23.30;1.00
13074;DHT22;6603;47.066;15.396;2022-08-19T10:26:27;23.50;1.00
13074;DHT22;6603;47.066;15.396;2022-08-19T10:28:53;23.30;1.00
13074;DHT22;6603;47.066;15.396;2022-08-19T10:31:22;23.30;99.90
13074;DHT22;6603;47.066;15.396;2022-08-19T10:33:50;23.30;1.00
13074;DHT22;6603;47.066;15.396;2022-08-19T10:36:21;23.20;99.90
13074;DHT22;6603;47.066;15.396;2022-08-19T10:38:51;23.30;1.00
13074;DHT22;6603;47.066;15.396;2022-08-19T10:41:19;23.00;1.00
13074;DHT22;6603;47.066;15.396;2022-08-19T10:43:47;23.20;1.00
13074;DHT22;6603;47.066;15.396;2022-08-19T10:46:16;23.20;99.90
13074;DHT22;6603;47.066;15.396;2022-08-19T10:48:42;23.50;1.00
13074;DHT22;6603;47.066;15.396;2022-08-19T10:51:10;24.10;1.00
13074;DHT22;6603;47.066;15.396;2022-08-19T10:53:55;24.40;99.90
13074;DHT22;6603;47.066;15.396;2022-08-19T10:56:21;24.60;53.60
13074;DHT22;6603;47.066;15.396;2022-08-19T10:59:06;24.70;1.00
13074;DHT22;6603;47.066;15.396;2022-08-19T11:01:33;24.70;27.20
13074;DHT22;6603;47.066;15.396;2022-08-19T11:04:04;24.90;99.90
13074;DHT22;6603;47.066;15.396;2022-08-19T11:06:32;24.80;1.00
13074;DHT22;6603;47.066;15.396;2022-08-19T11:08:58;25.00;99.90
13074;DHT22;6603;47.066;15.396;2022-08-19T11:11:26;25.40;99.90
13074;DHT22;6603;47.066;15.396;2022-08-19T11:13:52;25.60;7.20
13074;DHT22;6603;47.066;15.396;2022-08-19T11:16:24;25.80;99.90
13074;DHT22;6603;47.066;15.396;2022-08-19T11:18:53;26.00;1.00
13074;DHT22;6603;47.066;15.396;2022-08-19T11:21:29;26.30;1.00
13074;DHT22;6603;47.066;15.396;2022-08-19T11:24:00;26.40;1.00
13074;DHT22;6603;47.066;15.396;2022-08-19T11:26:27;26.80;1.00
13074;DHT22;6603;47.066;15.396;2022-08-19T11:28:53;26.80;1.00
13074;DHT22;6603;47.066;15.396;2022-08-19T11:31:26;26.40;1.00
13074;DHT22;6603;47.066;15.396;2022-08-19T11:33:53;26.30;1.00
13074;DHT22;6603;47.066;15.396;2022-08-19T11:36:20;26.30;1.00
13074;DHT22;6603;47.066;15.396;2022-08-19T11:38:48;26.20;99.90
13074;DHT22;6603;47.066;15.396;2022-08-19T11:41:16;25.90;85.60
13074;DHT22;6603;47.066;15.396;2022-08-19T11:43:42;25.80;99.90
13074;DHT22;6603;47.066;15.396;2022-08-19T11:46:10;26.00;1.00
13074;DHT22;6603;47.066;15.396;2022-08-19T11:48:37;25.90;99.90
13074;DHT22;6603;47.066;15.396;2022-08-19T11:51:07;26.30;1.00
13074;DHT22;6603;47.066;15.396;2022-08-19T11:53:35;26.70;1.00
13074;DHT22;6603;47.066;15.396;2022-08-19T11:56:03;26.80;1.00
13074;DHT22;6603;47.066;15.396;2022-08-19T11:58:29;27.00;1.00
13074;DHT22;6603;47.066;15.396;2022-08-19T12:00:56;27.30;99.90
13074;DHT22;6603;47.066;15.396;2022-08-19T12:03:21;27.20;99.90
13074;DHT22;6603;47.066;15.396;2022-08-19T12:05:47;27.60;99.90
13074;DHT22;6603;47.066;15.396;2022-08-19T12:08:14;27.70;99.90
13074;DHT22;6603;47.066;15.396;2022-08-19T12:10:41;27.90;99.90
13074;DHT22;6603;47.066;15.396;2022-08-19T12:13:09;27.90;99.90
13074;DHT22;6603;47.066;15.396;2022-08-19T12:15:37;28.00;31.20
13074;DHT22;6603;47.066;15.396;2022-08-19T12:18:04;28.00;58.50
13074;DHT22;6603;47.066;15.396;2022-08-19T12:20:30;28.20;18.10
13074;DHT22;6603;47.066;15.396;2022-08-19T12:22:56;27.70;1.00
13074;DHT22;6603;47.066;15.396;2022-08-19T12:25:22;27.80;1.00
13074;DHT22;6603;47.066;15.396;2022-08-19T12:27:48;28.40;1.00
13074;DHT22;6603;47.066;15.396;2022-08-19T12:30:15;28.90;1.00
13074;DHT22;6603;47.066;15.396;2022-08-19T12:32:41;29.00;1.00
13074;DHT22;6603;47.066;15.396;2022-08-19T12:35:10;29.20;1.00
13074;DHT22;6603;47.066;15.396;2022-08-19T12:37:37;29.00;1.00
13074;DHT22;6603;47.066;15.396;2022-08-19T12:40:04;28.90;1.00
13074;DHT22;6603;47.066;15.396;2022-08-19T12:42:30;28.60;1.00
13074;DHT22;6603;47.066;15.396;2022-08-19T12:44:56;28.80;1.00
13074;DHT22;6603;47.066;15.396;2022-08-19T12:47:22;29.00;1.00
13074;DHT22;6603;47.066;15.396;2022-08-19T12:49:48;29.40;1.00
13074;DHT22;6603;47.066;15.396;2022-08-19T12:52:15;29.80;1.00
13074;DHT22;6603;47.066;15.396;2022-08-19T12:54:42;29.70;1.00
13074;DHT22;6603;47.066;15.396;2022-08-19T12:57:10;29.50;1.00
13074;DHT22;6603;47.066;15.396;2022-08-19T12:59:37;29.60;1.00
13074;DHT22;6603;47.066;15.396;2022-08-19T13:02:04;29.20;1.00
13074;DHT22;6603;47.066;15.396;2022-08-19T13:04:34;29.20;1.00
13074;DHT22;6603;47.066;15.396;2022-08-19T13:07:07;29.20;1.00
13074;DHT22;6603;47.066;15.396;2022-08-19T13:09:33;29.00;1.00
13074;DHT22;6603;47.066;15.396;2022-08-19T13:11:59;29.00;1.00
13074;DHT22;6603;47.066;15.396;2022-08-19T13:14:28;29.20;1.00
13074;DHT22;6603;47.066;15.396;2022-08-19T13:16:56;28.60;1.00
13074;DHT22;6603;47.066;15.396;2022-08-19T13:19:23;28.50;1.00
13074;DHT22;6603;47.066;15.396;2022-08-19T13:21:50;28.60;1.00
13074;DHT22;6603;47.066;15.396;2022-08-19T13:24:17;28.50;1.00
13074;DHT22;6603;47.066;15.396;2022-08-19T13:26:43;28.20;1.00
13074;DHT22;6603;47.066;15.396;2022-08-19T13:29:09;28.20;1.00
13074;DHT22;6603;47.066;15.396;2022-08-19T13:31:53;28.50;1.00
13074;DHT22;6603;47.066;15.396;2022-08-19T13:34:38;28.80;1.00
13074;DHT22;6603;47.066;15.396;2022-08-19T13:37:05;28.30;1.00
13074;DHT22;6603;47.066;15.396;2022-08-19T13:39:32;28.60;1.00
13074;DHT22;6603;47.066;15.396;2022-08-19T13:41:58;29.00;1.00
13074;DHT22;6603;47.066;15.396;2022-08-19T13:44:26;29.30;1.00
13074;DHT22;6603;47.066;15.396;2022-08-19T13:46:59;29.50;1.00
13074;DHT22;6603;47.066;15.396;2022-08-19T13:49:28;30.10;1.00
13074;DHT22;6603;47.066;15.396;2022-08-19T13:51:56;30.30;1.00
13074;DHT22;6603;47.066;15.396;2022-08-19T13:54:22;30.20;1.00
13074;DHT22;6603;47.066;15.396;2022-08-19T13:56:48;29.90;1.00
13074;DHT22;6603;47.066;15.396;2022-08-19T13:59:14;29.90;1.00
13074;DHT22;6603;47.066;15.396;2022-08-19T14:01:40;29.90;1.00
13074;DHT22;6603;47.066;15.396;2022-08-19T14:04:07;30.10;1.00
13074;DHT22;6603;47.066;15.396;2022-08-19T14:06:33;30.60;1.00
13074;DHT22;6603;47.066;15.396;2022-08-19T14:08:59;30.90;1.00
13074;DHT22;6603;47.066;15.396;2022-08-19T14:11:28;30.50;1.00
13074;DHT22;6603;47.066;15.396;2022-08-19T14:13:54;30.30;1.00
13074;DHT22;6603;47.066;15.396;2022-08-19T14:16:20;30.30;1.00
13074;DHT22;6603;47.066;15.396;2022-08-19T14:18:47;30.20;1.00
13074;DHT22;6603;47.066;15.396;2022-08-19T14:21:18;30.10;1.00
13074;DHT22;6603;47.066;15.396;2022-08-19T14:23:45;30.00;1.00
13074;DHT22;6603;47.066;15.396;2022-08-19T14:26:15;30.00;1.00
13074;DHT22;6603;47.066;15.396;2022-08-19T14:28:42;30.10;1.00
13074;DHT22;6603;47.066;15.396;2022-08-19T14:31:12;30.10;1.00
13074;DHT22;6603;47.066;15.396;2022-08-19T14:33:38;30.10;1.00
13074;DHT22;6603;47.066;15.396;2022-08-19T14:36:05;30.10;1.00
13074;DHT22;6603;47.066;15.396;2022-08-19T14:38:31;30.10;1.00
13074;DHT22;6603;47.066;15.396;2022-08-19T14:41:16;30.30;1.00
13074;DHT22;6603;47.066;15.396;2022-08-19T14:43:47;30.10;1.00
13074;DHT22;6603;47.066;15.396;2022-08-19T14:46:19;29.90;1.00
13074;DHT22;6603;47.066;15.396;2022-08-19T14:48:48;30.30;1.00
13074;DHT22;6603;47.066;15.396;2022-08-19T14:51:15;30.70;1.00
13074;DHT22;6603;47.066;15.396;2022-08-19T14:53:42;31.00;1.00
13074;DHT22;6603;47.066;15.396;2022-08-19T14:56:13;30.40;1.00
13074;DHT22;6603;47.066;15.396;2022-08-19T14:58:41;30.10;1.00
13074;DHT22;6603;47.066;15.396;2022-08-19T15:01:08;30.10;1.00
13074;DHT22;6603;47.066;15.396;2022-08-19T15:03:35;30.10;1.00
13074;DHT22;6603;47.066;15.396;2022-08-19T15:06:03;29.90;1.00
13074;DHT22;6603;47.066;15.396;2022-08-19T15:08:31;29.80;1.00
13074;DHT22;6603;47.066;15.396;2022-08-19T15:10:58;29.30;1.00
13074;DHT22;6603;47.066;15.396;2022-08-19T15:13:25;29.40;1.00
13074;DHT22;6603;47.066;15.396;2022-08-19T15:15:52;29.20;1.00
13074;DHT22;6603;47.066;15.396;2022-08-19T15:18:19;29.30;1.00
13074;DHT22;6603;47.066;15.396;2022-08-19T15:20:46;29.30;1.00
13074;DHT22;6603;47.066;15.396;2022-08-19T15:23:15;29.50;1.00
13074;DHT22;6603;47.066;15.396;2022-08-19T15:25:42;29.50;1.00
13074;DHT22;6603;47.066;15.396;2022-08-19T15:28:09;29.40;1.00
13074;DHT22;6603;47.066;15.396;2022-08-19T15:30:39;29.30;1.00
13074;DHT22;6603;47.066;15.396;2022-08-19T15:33:06;29.10;1.00
13074;DHT22;6603;47.066;15.396;2022-08-19T15:35:32;28.60;1.00
13074;DHT22;6603;47.066;15.396;2022-08-19T15:37:58;28.30;1.00
13074;DHT22;6603;47.066;15.396;2022-08-19T15:40:26;27.90;1.00
13074;DHT22;6603;47.066;15.396;2022-08-19T15:42:52;27.80;1.00
13074;DHT22;6603;47.066;15.396;2022-08-19T15:45:21;27.50;1.00
13074;DHT22;6603;47.066;15.396;2022-08-19T15:47:47;27.40;1.00
13074;DHT22;6603;47.066;15.396;2022-08-19T15:50:17;27.30;1.00
13074;DHT22;6603;47.066;15.396;2022-08-19T15:52:55;27.20;1.00
13074;DHT22;6603;47.066;15.396;2022-08-19T15:55:28;27.10;1.00
13074;DHT22;6603;47.066;15.396;2022-08-19T15:57:54;27.20;1.00